sensor_id;sensor_type;location;lat;lon;timestamp;P1;durP1;ratioP1;P2;durP2;ratioP2
51384;SDS011;37478;55.682;37.462;2023-12-20T00:00:05;4.88;;;2.80;;
51384;SDS011;37478;55.682;37.462;2023-12-20T00:02:30;4.95;;;2.70;;
51384;SDS011;37478;55.682;37.462;2023-12-20T00:04:56;3.70;;;2.72;;
51384;SDS011;37478;55.682;37.462;2023-12-20T00:07:21;4.18;;;2.63;;
51384;SDS011;37478;55.682;37.462;2023-12-20T00:09:46;5.32;;;3.70;;
51384;SDS011;37478;55.682;37.462;2023-12-20T00:12:12;3.83;;;2.50;;
51384;SDS011;37478;55.682;37.462;2023-12-20T00:14:37;3.75;;;2.60;;
51384;SDS011;37478;55.682;37.462;2023-12-20T00:17:02;7.20;;;3.00;;
51384;SDS011;37478;55.682;37.462;2023-12-20T00:19:28;5.57;;;3.10;;
51384;SDS011;37478;55.682;37.462;2023-12-20T00:21:53;4.03;;;2.80;;
51384;SDS011;37478;55.682;37.462;2023-12-20T00:24:18;5.35;;;3.25;;
51384;SDS011;37478;55.682;37.462;2023-12-20T00:26:44;5.85;;;3.25;;
51384;SDS011;37478;55.682;37.462;2023-12-20T00:29:09;6.13;;;3.30;;
51384;SDS011;37478;55.682;37.462;2023-12-20T00:31:34;5.43;;;3.28;;
51384;SDS011;37478;55.682;37.462;2023-12-20T00:34:00;4.45;;;2.80;;
51384;SDS011;37478;55.682;37.462;2023-12-20T00:36:25;4.07;;;2.70;;
51384;SDS011;37478;55.682;37.462;2023-12-20T00:38:50;4.70;;;3.13;;
51384;SDS011;37478;55.682;37.462;2023-12-20T00:41:16;4.25;;;3.00;;
51384;SDS011;37478;55.682;37.462;2023-12-20T00:43:42;6.18;;;3.50;;
51384;SDS011;37478;55.682;37.462;2023-12-20T00:46:07;8.38;;;3.50;;
51384;SDS011;37478;55.682;37.462;2023-12-20T00:48:32;4.40;;;2.90;;
51384;SDS011;37478;55.682;37.462;2023-12-20T00:50:58;4.05;;;2.75;;
51384;SDS011;37478;55.682;37.462;2023-12-20T00:53:23;3.72;;;2.60;;
51384;SDS011;37478;55.682;37.462;2023-12-20T00:55:48;5.93;;;3.38;;
51384;SDS011;37478;55.682;37.462;2023-12-20T00:58:15;5.70;;;3.20;;
51384;SDS011;37478;55.682;37.462;2023-12-20T01:00:40;6.32;;;3.55;;
51384;SDS011;37478;55.682;37.462;2023-12-20T01:03:07;5.35;;;3.28;;
51384;SDS011;37478;55.682;37.462;2023-12-20T01:05:32;5.60;;;3.03;;
51384;SDS011;37478;55.682;37.462;2023-12-20T01:07:57;6.20;;;3.22;;
51384;SDS011;37478;55.682;37.462;2023-12-20T01:10:23;7.45;;;3.53;;
51384;SDS011;37478;55.682;37.462;2023-12-20T01:12:48;6.30;;;3.55;;
51384;SDS011;37478;55.682;37.462;2023-12-20T01:15:14;5.80;;;3.10;;
51384;SDS011;37478;55.682;37.462;2023-12-20T01:17:39;5.10;;;3.10;;
51384;SDS011;37478;55.682;37.462;2023-12-20T01:20:04;4.00;;;2.65;;
51384;SDS011;37478;55.682;37.462;2023-12-20T01:22:31;5.18;;;3.47;;
51384;SDS011;37478;55.682;37.462;2023-12-20T01:24:56;4.43;;;2.83;;
51384;SDS011;37478;55.682;37.462;2023-12-20T01:27:21;8.43;;;2.92;;
51384;SDS011;37478;55.682;37.462;2023-12-20T01:29:47;3.45;;;2.35;;
51384;SDS011;37478;55.682;37.462;2023-12-20T01:32:12;4.60;;;2.50;;
51384;SDS011;37478;55.682;37.462;2023-12-20T01:34:37;3.63;;;2.22;;
51384;SDS011;37478;55.682;37.462;2023-12-20T01:37:03;4.22;;;2.13;;
51384;SDS011;37478;55.682;37.462;2023-12-20T01:39:29;4.63;;;2.50;;
51384;SDS011;37478;55.682;37.462;2023-12-20T01:41:54;4.55;;;2.60;;
51384;SDS011;37478;55.682;37.462;2023-12-20T01:44:19;1.88;;;1.67;;
51384;SDS011;37478;55.682;37.462;2023-12-20T01:46:45;5.10;;;2.60;;
51384;SDS011;37478;55.682;37.462;2023-12-20T01:49:10;2.80;;;2.25;;
51384;SDS011;37478;55.682;37.462;2023-12-20T01:51:36;6.35;;;2.50;;
51384;SDS011;37478;55.682;37.462;2023-12-20T01:54:01;2.00;;;1.80;;
51384;SDS011;37478;55.682;37.462;2023-12-20T01:56:26;4.28;;;2.10;;
51384;SDS011;37478;55.682;37.462;2023-12-20T01:58:53;4.80;;;2.20;;
51384;SDS011;37478;55.682;37.462;2023-12-20T02:01:19;1.77;;;1.35;;
51384;SDS011;37478;55.682;37.462;2023-12-20T02:03:44;2.83;;;1.75;;
51384;SDS011;37478;55.682;37.462;2023-12-20T02:06:10;4.40;;;2.15;;
51384;SDS011;37478;55.682;37.462;2023-12-20T02:08:36;1.98;;;1.75;;
51384;SDS011;37478;55.682;37.462;2023-12-20T02:11:01;3.10;;;2.00;;
51384;SDS011;37478;55.682;37.462;2023-12-20T02:13:27;2.70;;;1.75;;
51384;SDS011;37478;55.682;37.462;2023-12-20T02:15:52;2.13;;;1.63;;
51384;SDS011;37478;55.682;37.462;2023-12-20T02:18:17;2.33;;;1.60;;
51384;SDS011;37478;55.682;37.462;2023-12-20T02:20:43;1.58;;;1.30;;
51384;SDS011;37478;55.682;37.462;2023-12-20T02:23:08;2.10;;;1.40;;
51384;SDS011;37478;55.682;37.462;2023-12-20T02:25:33;3.30;;;1.75;;
51384;SDS011;37478;55.682;37.462;2023-12-20T02:27:59;3.92;;;2.08;;
51384;SDS011;37478;55.682;37.462;2023-12-20T02:30:24;3.28;;;1.95;;
51384;SDS011;37478;55.682;37.462;2023-12-20T02:32:49;3.28;;;1.92;;
51384;SDS011;37478;55.682;37.462;2023-12-20T02:35:15;2.53;;;1.77;;
51384;SDS011;37478;55.682;37.462;2023-12-20T02:37:40;2.63;;;2.03;;
51384;SDS011;37478;55.682;37.462;2023-12-20T02:40:06;3.33;;;2.05;;
51384;SDS011;37478;55.682;37.462;2023-12-20T02:42:31;5.82;;;2.30;;
51384;SDS011;37478;55.682;37.462;2023-12-20T02:44:56;4.40;;;2.78;;
51384;SDS011;37478;55.682;37.462;2023-12-20T02:47:22;4.03;;;2.53;;
51384;SDS011;37478;55.682;37.462;2023-12-20T02:49:47;3.85;;;2.55;;
51384;SDS011;37478;55.682;37.462;2023-12-20T02:52:12;3.38;;;2.75;;
51384;SDS011;37478;55.682;37.462;2023-12-20T02:54:37;4.78;;;2.85;;
51384;SDS011;37478;55.682;37.462;2023-12-20T02:57:03;5.13;;;2.80;;
51384;SDS011;37478;55.682;37.462;2023-12-20T02:59:28;4.95;;;3.10;;
51384;SDS011;37478;55.682;37.462;2023-12-20T03:01:54;5.05;;;3.53;;
51384;SDS011;37478;55.682;37.462;2023-12-20T03:04:19;6.00;;;3.25;;
51384;SDS011;37478;55.682;37.462;2023-12-20T03:06:44;6.90;;;4.88;;
51384;SDS011;37478;55.682;37.462;2023-12-20T03:09:09;4.60;;;3.47;;
51384;SDS011;37478;55.682;37.462;2023-12-20T03:11:35;5.10;;;3.45;;
51384;SDS011;37478;55.682;37.462;2023-12-20T03:14:00;5.78;;;3.58;;
51384;SDS011;37478;55.682;37.462;2023-12-20T03:16:25;6.28;;;3.60;;
51384;SDS011;37478;55.682;37.462;2023-12-20T03:18:51;8.15;;;4.07;;
51384;SDS011;37478;55.682;37.462;2023-12-20T03:21:16;6.03;;;3.53;;
51384;SDS011;37478;55.682;37.462;2023-12-20T03:23:41;8.20;;;4.05;;
51384;SDS011;37478;55.682;37.462;2023-12-20T03:26:07;5.10;;;3.05;;
51384;SDS011;37478;55.682;37.462;2023-12-20T03:28:32;6.97;;;3.70;;
51384;SDS011;37478;55.682;37.462;2023-12-20T03:30:58;6.35;;;3.50;;
51384;SDS011;37478;55.682;37.462;2023-12-20T03:33:23;6.82;;;4.20;;
51384;SDS011;37478;55.682;37.462;2023-12-20T03:35:48;6.07;;;3.50;;
51384;SDS011;37478;55.682;37.462;2023-12-20T03:38:14;7.28;;;4.57;;
51384;SDS011;37478;55.682;37.462;2023-12-20T03:40:39;7.55;;;4.68;;
51384;SDS011;37478;55.682;37.462;2023-12-20T03:43:04;5.90;;;3.83;;
51384;SDS011;37478;55.682;37.462;2023-12-20T03:45:29;9.55;;;4.28;;
51384;SDS011;37478;55.682;37.462;2023-12-20T03:47:55;7.95;;;3.85;;
51384;SDS011;37478;55.682;37.462;2023-12-20T03:50:24;7.28;;;3.75;;
51384;SDS011;37478;55.682;37.462;2023-12-20T03:52:49;6.28;;;4.10;;
51384;SDS011;37478;55.682;37.462;2023-12-20T03:55:15;7.35;;;4.20;;
51384;SDS011;37478;55.682;37.462;2023-12-20T03:57:40;7.90;;;4.38;;
51384;SDS011;37478;55.682;37.462;2023-12-20T04:00:06;7.97;;;4.68;;
51384;SDS011;37478;55.682;37.462;2023-12-20T04:02:35;8.73;;;3.95;;
51384;SDS011;37478;55.682;37.462;2023-12-20T04:05:00;8.52;;;5.18;;
51384;SDS011;37478;55.682;37.462;2023-12-20T04:07:26;7.53;;;4.70;;
51384;SDS011;37478;55.682;37.462;2023-12-20T04:09:51;6.97;;;4.30;;
51384;SDS011;37478;55.682;37.462;2023-12-20T04:12:16;8.88;;;4.65;;
51384;SDS011;37478;55.682;37.462;2023-12-20T04:14:42;9.60;;;4.40;;
51384;SDS011;37478;55.682;37.462;2023-12-20T04:17:07;8.57;;;4.60;;
51384;SDS011;37478;55.682;37.462;2023-12-20T04:19:32;7.65;;;4.70;;
51384;SDS011;37478;55.682;37.462;2023-12-20T04:21:57;9.45;;;4.65;;
51384;SDS011;37478;55.682;37.462;2023-12-20T04:24:23;8.02;;;4.25;;
51384;SDS011;37478;55.682;37.462;2023-12-20T04:26:48;8.75;;;4.82;;
51384;SDS011;37478;55.682;37.462;2023-12-20T04:29:13;9.32;;;4.57;;
51384;SDS011;37478;55.682;37.462;2023-12-20T04:31:39;8.02;;;4.40;;
51384;SDS011;37478;55.682;37.462;2023-12-20T04:34:04;6.97;;;4.43;;
51384;SDS011;37478;55.682;37.462;2023-12-20T04:36:29;9.90;;;5.22;;
51384;SDS011;37478;55.682;37.462;2023-12-20T04:38:55;8.00;;;4.20;;
51384;SDS011;37478;55.682;37.462;2023-12-20T04:41:20;6.43;;;4.60;;
51384;SDS011;37478;55.682;37.462;2023-12-20T04:43:45;12.32;;;4.43;;
51384;SDS011;37478;55.682;37.462;2023-12-20T04:46:11;7.93;;;4.32;;
51384;SDS011;37478;55.682;37.462;2023-12-20T04:48:36;8.10;;;3.28;;
51384;SDS011;37478;55.682;37.462;2023-12-20T04:51:02;5.28;;;3.75;;
51384;SDS011;37478;55.682;37.462;2023-12-20T04:53:27;6.18;;;3.60;;
51384;SDS011;37478;55.682;37.462;2023-12-20T04:55:53;6.97;;;3.40;;
51384;SDS011;37478;55.682;37.462;2023-12-20T04:58:18;4.22;;;3.05;;
51384;SDS011;37478;55.682;37.462;2023-12-20T05:00:43;4.60;;;2.45;;
51384;SDS011;37478;55.682;37.462;2023-12-20T05:03:09;8.73;;;3.42;;
51384;SDS011;37478;55.682;37.462;2023-12-20T05:05:34;3.80;;;2.17;;
51384;SDS011;37478;55.682;37.462;2023-12-20T05:08:00;4.05;;;2.58;;
51384;SDS011;37478;55.682;37.462;2023-12-20T05:10:25;5.18;;;2.65;;
51384;SDS011;37478;55.682;37.462;2023-12-20T05:12:52;4.97;;;2.95;;
51384;SDS011;37478;55.682;37.462;2023-12-20T05:15:17;4.78;;;3.08;;
51384;SDS011;37478;55.682;37.462;2023-12-20T05:17:42;7.15;;;3.45;;
51384;SDS011;37478;55.682;37.462;2023-12-20T05:20:08;6.45;;;3.15;;
51384;SDS011;37478;55.682;37.462;2023-12-20T05:22:33;8.88;;;3.95;;
51384;SDS011;37478;55.682;37.462;2023-12-20T05:24:58;7.35;;;4.43;;
51384;SDS011;37478;55.682;37.462;2023-12-20T05:27:24;9.18;;;3.70;;
51384;SDS011;37478;55.682;37.462;2023-12-20T05:29:49;10.13;;;3.60;;
51384;SDS011;37478;55.682;37.462;2023-12-20T05:32:15;7.22;;;3.58;;
51384;SDS011;37478;55.682;37.462;2023-12-20T05:34:40;7.00;;;3.88;;
51384;SDS011;37478;55.682;37.462;2023-12-20T05:37:06;6.35;;;3.88;;
51384;SDS011;37478;55.682;37.462;2023-12-20T05:39:31;9.20;;;3.72;;
51384;SDS011;37478;55.682;37.462;2023-12-20T05:41:56;8.25;;;4.25;;
51384;SDS011;37478;55.682;37.462;2023-12-20T05:44:22;7.38;;;4.60;;
51384;SDS011;37478;55.682;37.462;2023-12-20T05:46:47;11.10;;;4.35;;
51384;SDS011;37478;55.682;37.462;2023-12-20T05:49:12;9.82;;;4.97;;
51384;SDS011;37478;55.682;37.462;2023-12-20T05:51:38;6.90;;;4.63;;
51384;SDS011;37478;55.682;37.462;2023-12-20T05:54:03;9.80;;;5.60;;
51384;SDS011;37478;55.682;37.462;2023-12-20T05:56:29;4.85;;;3.15;;
51384;SDS011;37478;55.682;37.462;2023-12-20T05:58:54;8.32;;;4.30;;
51384;SDS011;37478;55.682;37.462;2023-12-20T06:01:19;9.20;;;4.10;;
51384;SDS011;37478;55.682;37.462;2023-12-20T06:03:45;7.13;;;4.00;;
51384;SDS011;37478;55.682;37.462;2023-12-20T06:06:12;6.20;;;3.47;;
51384;SDS011;37478;55.682;37.462;2023-12-20T06:08:38;8.68;;;4.60;;
51384;SDS011;37478;55.682;37.462;2023-12-20T06:11:04;6.97;;;4.47;;
51384;SDS011;37478;55.682;37.462;2023-12-20T06:13:30;9.65;;;4.22;;
51384;SDS011;37478;55.682;37.462;2023-12-20T06:15:55;6.63;;;3.58;;
51384;SDS011;37478;55.682;37.462;2023-12-20T06:18:21;9.82;;;4.05;;
51384;SDS011;37478;55.682;37.462;2023-12-20T06:20:46;7.38;;;4.43;;
51384;SDS011;37478;55.682;37.462;2023-12-20T06:23:11;6.88;;;4.43;;
51384;SDS011;37478;55.682;37.462;2023-12-20T06:25:36;8.15;;;3.53;;
51384;SDS011;37478;55.682;37.462;2023-12-20T06:28:02;6.18;;;3.75;;
51384;SDS011;37478;55.682;37.462;2023-12-20T06:30:27;6.80;;;4.25;;
51384;SDS011;37478;55.682;37.462;2023-12-20T06:32:53;7.32;;;3.95;;
51384;SDS011;37478;55.682;37.462;2023-12-20T06:35:19;6.97;;;3.58;;
51384;SDS011;37478;55.682;37.462;2023-12-20T06:37:44;7.03;;;3.92;;
51384;SDS011;37478;55.682;37.462;2023-12-20T06:40:10;5.68;;;3.70;;
51384;SDS011;37478;55.682;37.462;2023-12-20T06:42:35;7.85;;;3.53;;
51384;SDS011;37478;55.682;37.462;2023-12-20T06:45:00;6.95;;;3.72;;
51384;SDS011;37478;55.682;37.462;2023-12-20T06:47:26;6.47;;;3.53;;
51384;SDS011;37478;55.682;37.462;2023-12-20T06:49:51;5.93;;;3.67;;
51384;SDS011;37478;55.682;37.462;2023-12-20T06:52:17;6.18;;;3.78;;
51384;SDS011;37478;55.682;37.462;2023-12-20T06:54:42;6.03;;;3.53;;
51384;SDS011;37478;55.682;37.462;2023-12-20T06:57:07;4.85;;;3.03;;
51384;SDS011;37478;55.682;37.462;2023-12-20T06:59:37;9.15;;;3.83;;
51384;SDS011;37478;55.682;37.462;2023-12-20T07:02:03;6.18;;;4.05;;
51384;SDS011;37478;55.682;37.462;2023-12-20T07:04:28;5.93;;;3.67;;
51384;SDS011;37478;55.682;37.462;2023-12-20T07:06:53;5.82;;;3.58;;
51384;SDS011;37478;55.682;37.462;2023-12-20T07:09:22;6.53;;;3.47;;
51384;SDS011;37478;55.682;37.462;2023-12-20T07:11:47;9.15;;;3.83;;
51384;SDS011;37478;55.682;37.462;2023-12-20T07:14:13;4.10;;;3.30;;
51384;SDS011;37478;55.682;37.462;2023-12-20T07:16:38;5.90;;;3.50;;
51384;SDS011;37478;55.682;37.462;2023-12-20T07:19:03;7.05;;;3.70;;
51384;SDS011;37478;55.682;37.462;2023-12-20T07:21:29;7.35;;;4.47;;
51384;SDS011;37478;55.682;37.462;2023-12-20T07:23:54;6.55;;;3.65;;
51384;SDS011;37478;55.682;37.462;2023-12-20T07:26:19;9.50;;;2.90;;
51384;SDS011;37478;55.682;37.462;2023-12-20T07:28:45;4.95;;;3.30;;
51384;SDS011;37478;55.682;37.462;2023-12-20T07:31:11;5.47;;;3.60;;
51384;SDS011;37478;55.682;37.462;2023-12-20T07:33:36;5.82;;;3.65;;
51384;SDS011;37478;55.682;37.462;2023-12-20T07:36:01;4.65;;;3.40;;
51384;SDS011;37478;55.682;37.462;2023-12-20T07:38:27;4.93;;;3.65;;
51384;SDS011;37478;55.682;37.462;2023-12-20T07:40:52;6.78;;;3.53;;
51384;SDS011;37478;55.682;37.462;2023-12-20T07:43:17;6.32;;;3.58;;
51384;SDS011;37478;55.682;37.462;2023-12-20T07:45:43;4.20;;;3.25;;
51384;SDS011;37478;55.682;37.462;2023-12-20T07:48:08;6.30;;;3.55;;
51384;SDS011;37478;55.682;37.462;2023-12-20T07:50:33;6.00;;;4.07;;
51384;SDS011;37478;55.682;37.462;2023-12-20T07:52:59;4.38;;;2.90;;
51384;SDS011;37478;55.682;37.462;2023-12-20T07:55:25;4.45;;;2.40;;
51384;SDS011;37478;55.682;37.462;2023-12-20T07:57:51;5.10;;;2.95;;
51384;SDS011;37478;55.682;37.462;2023-12-20T08:00:16;6.25;;;3.40;;
51384;SDS011;37478;55.682;37.462;2023-12-20T08:02:41;6.75;;;3.40;;
51384;SDS011;37478;55.682;37.462;2023-12-20T08:05:07;6.50;;;3.50;;
51384;SDS011;37478;55.682;37.462;2023-12-20T08:07:32;4.22;;;3.10;;
51384;SDS011;37478;55.682;37.462;2023-12-20T08:09:58;5.80;;;3.67;;
51384;SDS011;37478;55.682;37.462;2023-12-20T08:12:23;8.82;;;3.00;;
51384;SDS011;37478;55.682;37.462;2023-12-20T08:14:50;4.32;;;2.95;;
51384;SDS011;37478;55.682;37.462;2023-12-20T08:17:16;7.68;;;3.38;;
51384;SDS011;37478;55.682;37.462;2023-12-20T08:19:43;4.68;;;3.10;;
51384;SDS011;37478;55.682;37.462;2023-12-20T08:22:08;6.20;;;3.10;;
51384;SDS011;37478;55.682;37.462;2023-12-20T08:24:33;4.55;;;2.40;;
51384;SDS011;37478;55.682;37.462;2023-12-20T08:26:59;4.60;;;3.45;;
51384;SDS011;37478;55.682;37.462;2023-12-20T08:29:24;6.30;;;3.15;;
51384;SDS011;37478;55.682;37.462;2023-12-20T08:31:53;4.68;;;3.20;;
51384;SDS011;37478;55.682;37.462;2023-12-20T08:34:19;5.30;;;3.08;;
51384;SDS011;37478;55.682;37.462;2023-12-20T08:36:44;5.10;;;3.30;;
51384;SDS011;37478;55.682;37.462;2023-12-20T08:39:09;6.40;;;3.70;;
51384;SDS011;37478;55.682;37.462;2023-12-20T08:41:35;7.13;;;3.63;;
51384;SDS011;37478;55.682;37.462;2023-12-20T08:44:00;6.15;;;3.72;;
51384;SDS011;37478;55.682;37.462;2023-12-20T08:46:26;6.88;;;3.83;;
51384;SDS011;37478;55.682;37.462;2023-12-20T08:48:51;5.50;;;3.28;;
51384;SDS011;37478;55.682;37.462;2023-12-20T08:51:16;6.35;;;4.13;;
51384;SDS011;37478;55.682;37.462;2023-12-20T08:53:42;8.82;;;5.30;;
51384;SDS011;37478;55.682;37.462;2023-12-20T08:56:10;5.60;;;3.83;;
51384;SDS011;37478;55.682;37.462;2023-12-20T08:58:35;7.88;;;4.68;;
51384;SDS011;37478;55.682;37.462;2023-12-20T09:01:01;7.43;;;4.00;;
51384;SDS011;37478;55.682;37.462;2023-12-20T09:03:26;9.02;;;4.38;;
51384;SDS011;37478;55.682;37.462;2023-12-20T09:05:51;6.03;;;4.20;;
51384;SDS011;37478;55.682;37.462;2023-12-20T09:08:17;8.77;;;4.47;;
51384;SDS011;37478;55.682;37.462;2023-12-20T09:10:42;4.88;;;3.47;;
51384;SDS011;37478;55.682;37.462;2023-12-20T09:13:08;7.88;;;3.75;;
51384;SDS011;37478;55.682;37.462;2023-12-20T09:15:33;7.10;;;3.85;;
51384;SDS011;37478;55.682;37.462;2023-12-20T09:17:59;9.48;;;4.57;;
51384;SDS011;37478;55.682;37.462;2023-12-20T09:20:24;7.20;;;3.33;;
51384;SDS011;37478;55.682;37.462;2023-12-20T09:22:50;6.72;;;3.50;;
51384;SDS011;37478;55.682;37.462;2023-12-20T09:25:18;9.40;;;3.95;;
51384;SDS011;37478;55.682;37.462;2023-12-20T09:27:43;5.65;;;3.22;;
51384;SDS011;37478;55.682;37.462;2023-12-20T09:30:08;4.80;;;3.38;;
51384;SDS011;37478;55.682;37.462;2023-12-20T09:32:34;5.53;;;3.60;;
51384;SDS011;37478;55.682;37.462;2023-12-20T09:34:59;6.80;;;3.55;;
51384;SDS011;37478;55.682;37.462;2023-12-20T09:37:28;9.05;;;4.85;;
51384;SDS011;37478;55.682;37.462;2023-12-20T09:39:53;5.65;;;3.75;;
51384;SDS011;37478;55.682;37.462;2023-12-20T09:42:29;5.10;;;3.67;;
51384;SDS011;37478;55.682;37.462;2023-12-20T09:44:54;6.97;;;3.78;;
51384;SDS011;37478;55.682;37.462;2023-12-20T09:47:20;7.57;;;4.25;;
51384;SDS011;37478;55.682;37.462;2023-12-20T09:49:48;6.47;;;4.00;;
51384;SDS011;37478;55.682;37.462;2023-12-20T09:52:14;6.35;;;4.10;;
51384;SDS011;37478;55.682;37.462;2023-12-20T09:54:40;5.57;;;4.00;;
51384;SDS011;37478;55.682;37.462;2023-12-20T09:57:06;6.55;;;4.18;;
51384;SDS011;37478;55.682;37.462;2023-12-20T09:59:32;5.95;;;3.15;;
51384;SDS011;37478;55.682;37.462;2023-12-20T10:01:57;5.40;;;3.47;;
51384;SDS011;37478;55.682;37.462;2023-12-20T10:04:22;7.60;;;3.83;;
51384;SDS011;37478;55.682;37.462;2023-12-20T10:06:48;4.85;;;3.20;;
51384;SDS011;37478;55.682;37.462;2023-12-20T10:09:13;6.40;;;3.40;;
51384;SDS011;37478;55.682;37.462;2023-12-20T10:11:39;3.97;;;2.90;;
51384;SDS011;37478;55.682;37.462;2023-12-20T10:14:05;4.22;;;2.63;;
51384;SDS011;37478;55.682;37.462;2023-12-20T10:16:30;4.72;;;2.92;;
51384;SDS011;37478;55.682;37.462;2023-12-20T10:18:56;4.35;;;2.72;;
51384;SDS011;37478;55.682;37.462;2023-12-20T10:21:22;6.25;;;3.70;;
51384;SDS011;37478;55.682;37.462;2023-12-20T10:23:48;4.65;;;3.20;;
51384;SDS011;37478;55.682;37.462;2023-12-20T10:26:21;4.15;;;3.05;;
51384;SDS011;37478;55.682;37.462;2023-12-20T10:28:50;4.18;;;2.70;;
51384;SDS011;37478;55.682;37.462;2023-12-20T10:31:29;5.03;;;2.95;;
51384;SDS011;37478;55.682;37.462;2023-12-20T10:33:57;4.13;;;2.78;;
51384;SDS011;37478;55.682;37.462;2023-12-20T10:36:24;5.05;;;3.50;;
51384;SDS011;37478;55.682;37.462;2023-12-20T10:38:52;4.32;;;2.83;;
51384;SDS011;37478;55.682;37.462;2023-12-20T10:41:18;5.38;;;3.10;;
51384;SDS011;37478;55.682;37.462;2023-12-20T10:43:45;3.90;;;2.58;;
51384;SDS011;37478;55.682;37.462;2023-12-20T10:46:12;6.78;;;3.05;;
51384;SDS011;37478;55.682;37.462;2023-12-20T10:48:37;4.57;;;2.80;;
51384;SDS011;37478;55.682;37.462;2023-12-20T10:51:04;5.47;;;2.70;;
51384;SDS011;37478;55.682;37.462;2023-12-20T10:53:30;5.18;;;3.28;;
51384;SDS011;37478;55.682;37.462;2023-12-20T10:55:55;5.10;;;2.83;;
51384;SDS011;37478;55.682;37.462;2023-12-20T10:58:24;4.65;;;3.00;;
51384;SDS011;37478;55.682;37.462;2023-12-20T11:00:49;4.75;;;3.17;;
51384;SDS011;37478;55.682;37.462;2023-12-20T11:03:16;4.93;;;2.88;;
51384;SDS011;37478;55.682;37.462;2023-12-20T11:05:44;4.85;;;3.05;;
51384;SDS011;37478;55.682;37.462;2023-12-20T11:08:17;4.50;;;2.83;;
51384;SDS011;37478;55.682;37.462;2023-12-20T11:13:12;3.65;;;2.50;;
51384;SDS011;37478;55.682;37.462;2023-12-20T11:15:42;4.05;;;2.72;;
51384;SDS011;37478;55.682;37.462;2023-12-20T11:18:07;5.05;;;2.88;;
51384;SDS011;37478;55.682;37.462;2023-12-20T11:20:40;5.07;;;2.85;;
51384;SDS011;37478;55.682;37.462;2023-12-20T11:23:06;4.25;;;2.60;;
51384;SDS011;37478;55.682;37.462;2023-12-20T11:26:15;3.47;;;2.67;;
51384;SDS011;37478;55.682;37.462;2023-12-20T11:28:23;11.05;;;3.10;;
51384;SDS011;37478;55.682;37.462;2023-12-20T11:33:21;4.97;;;2.92;;
51384;SDS011;37478;55.682;37.462;2023-12-20T11:35:46;3.95;;;2.83;;
51384;SDS011;37478;55.682;37.462;2023-12-20T11:38:12;5.65;;;3.42;;
51384;SDS011;37478;55.682;37.462;2023-12-20T11:40:38;5.00;;;2.88;;
51384;SDS011;37478;55.682;37.462;2023-12-20T11:43:03;4.97;;;3.20;;
51384;SDS011;37478;55.682;37.462;2023-12-20T11:45:30;5.53;;;3.08;;
51384;SDS011;37478;55.682;37.462;2023-12-20T11:47:56;4.22;;;3.15;;
51384;SDS011;37478;55.682;37.462;2023-12-20T11:50:22;5.18;;;3.30;;
51384;SDS011;37478;55.682;37.462;2023-12-20T11:52:49;5.30;;;3.25;;
51384;SDS011;37478;55.682;37.462;2023-12-20T11:55:15;4.60;;;3.22;;
51384;SDS011;37478;55.682;37.462;2023-12-20T11:57:41;4.40;;;3.10;;
51384;SDS011;37478;55.682;37.462;2023-12-20T12:00:07;5.78;;;2.97;;
51384;SDS011;37478;55.682;37.462;2023-12-20T12:02:33;5.63;;;3.33;;
51384;SDS011;37478;55.682;37.462;2023-12-20T12:04:59;4.35;;;3.15;;
51384;SDS011;37478;55.682;37.462;2023-12-20T12:07:24;4.88;;;3.13;;
51384;SDS011;37478;55.682;37.462;2023-12-20T12:09:50;8.45;;;3.50;;
51384;SDS011;37478;55.682;37.462;2023-12-20T12:12:15;6.60;;;3.65;;
51384;SDS011;37478;55.682;37.462;2023-12-20T12:14:40;7.00;;;3.72;;
51384;SDS011;37478;55.682;37.462;2023-12-20T12:17:12;5.63;;;3.42;;
51384;SDS011;37478;55.682;37.462;2023-12-20T12:19:38;4.18;;;2.97;;
51384;SDS011;37478;55.682;37.462;2023-12-20T12:22:04;5.53;;;3.33;;
51384;SDS011;37478;55.682;37.462;2023-12-20T12:24:31;6.05;;;3.15;;
51384;SDS011;37478;55.682;37.462;2023-12-20T12:26:57;4.57;;;2.75;;
51384;SDS011;37478;55.682;37.462;2023-12-20T12:29:22;4.55;;;3.10;;
51384;SDS011;37478;55.682;37.462;2023-12-20T12:31:49;6.53;;;2.72;;
51384;SDS011;37478;55.682;37.462;2023-12-20T12:34:14;4.40;;;2.97;;
51384;SDS011;37478;55.682;37.462;2023-12-20T12:36:41;6.50;;;2.80;;
51384;SDS011;37478;55.682;37.462;2023-12-20T12:39:06;4.10;;;2.75;;
51384;SDS011;37478;55.682;37.462;2023-12-20T12:41:31;3.38;;;2.67;;
51384;SDS011;37478;55.682;37.462;2023-12-20T12:43:57;3.28;;;2.53;;
51384;SDS011;37478;55.682;37.462;2023-12-20T12:46:22;4.20;;;2.67;;
51384;SDS011;37478;55.682;37.462;2023-12-20T12:48:47;6.43;;;2.97;;
51384;SDS011;37478;55.682;37.462;2023-12-20T12:51:15;5.05;;;2.88;;
51384;SDS011;37478;55.682;37.462;2023-12-20T12:53:40;5.03;;;2.05;;
51384;SDS011;37478;55.682;37.462;2023-12-20T12:56:06;6.45;;;3.10;;
51384;SDS011;37478;55.682;37.462;2023-12-20T12:58:31;4.07;;;2.90;;
51384;SDS011;37478;55.682;37.462;2023-12-20T13:00:57;4.47;;;2.60;;
51384;SDS011;37478;55.682;37.462;2023-12-20T13:03:22;5.30;;;3.15;;
51384;SDS011;37478;55.682;37.462;2023-12-20T13:05:47;4.18;;;2.78;;
51384;SDS011;37478;55.682;37.462;2023-12-20T13:08:13;3.78;;;2.45;;
51384;SDS011;37478;55.682;37.462;2023-12-20T13:10:39;4.30;;;2.78;;
51384;SDS011;37478;55.682;37.462;2023-12-20T13:13:04;3.95;;;2.50;;
51384;SDS011;37478;55.682;37.462;2023-12-20T13:15:29;8.38;;;3.15;;
51384;SDS011;37478;55.682;37.462;2023-12-20T13:17:55;3.17;;;2.38;;
51384;SDS011;37478;55.682;37.462;2023-12-20T13:20:21;7.13;;;2.80;;
51384;SDS011;37478;55.682;37.462;2023-12-20T13:22:47;3.47;;;2.38;;
51384;SDS011;37478;55.682;37.462;2023-12-20T13:25:12;5.70;;;2.80;;
51384;SDS011;37478;55.682;37.462;2023-12-20T13:27:38;3.28;;;2.42;;
51384;SDS011;37478;55.682;37.462;2023-12-20T13:30:03;2.75;;;2.17;;
51384;SDS011;37478;55.682;37.462;2023-12-20T13:32:29;2.92;;;1.88;;
51384;SDS011;37478;55.682;37.462;2023-12-20T13:34:54;4.18;;;2.72;;
51384;SDS011;37478;55.682;37.462;2023-12-20T13:37:20;5.53;;;2.58;;
51384;SDS011;37478;55.682;37.462;2023-12-20T13:39:46;3.88;;;2.53;;
51384;SDS011;37478;55.682;37.462;2023-12-20T13:42:11;6.25;;;3.53;;
51384;SDS011;37478;55.682;37.462;2023-12-20T13:44:36;3.63;;;2.20;;
51384;SDS011;37478;55.682;37.462;2023-12-20T13:47:01;3.83;;;2.83;;
51384;SDS011;37478;55.682;37.462;2023-12-20T13:49:28;5.28;;;3.00;;
51384;SDS011;37478;55.682;37.462;2023-12-20T13:51:54;5.57;;;3.25;;
51384;SDS011;37478;55.682;37.462;2023-12-20T13:54:20;3.97;;;2.75;;
51384;SDS011;37478;55.682;37.462;2023-12-20T13:56:47;4.47;;;2.67;;
51384;SDS011;37478;55.682;37.462;2023-12-20T13:59:12;5.40;;;2.65;;
51384;SDS011;37478;55.682;37.462;2023-12-20T14:01:38;4.97;;;2.58;;
51384;SDS011;37478;55.682;37.462;2023-12-20T14:04:04;6.35;;;2.72;;
51384;SDS011;37478;55.682;37.462;2023-12-20T14:06:29;6.68;;;2.83;;
51384;SDS011;37478;55.682;37.462;2023-12-20T14:08:54;3.50;;;2.70;;
51384;SDS011;37478;55.682;37.462;2023-12-20T14:11:20;4.20;;;2.90;;
51384;SDS011;37478;55.682;37.462;2023-12-20T14:13:45;4.18;;;2.75;;
51384;SDS011;37478;55.682;37.462;2023-12-20T14:16:10;3.58;;;2.80;;
51384;SDS011;37478;55.682;37.462;2023-12-20T14:18:36;4.15;;;2.30;;
51384;SDS011;37478;55.682;37.462;2023-12-20T14:21:01;4.50;;;2.33;;
51384;SDS011;37478;55.682;37.462;2023-12-20T14:23:26;6.00;;;2.20;;
51384;SDS011;37478;55.682;37.462;2023-12-20T14:25:52;4.50;;;2.53;;
51384;SDS011;37478;55.682;37.462;2023-12-20T14:28:17;3.63;;;2.30;;